Tiempo atmosférico en la estación meteorológica de Navasfrías, Salamanca (880 m.)



Fecha
DESCASC
Temp. máxima en grados centígrados (hora)
DESCASC
Temp. mínima en grados centígrados (hora)
DESCASC
Temp. media en grados centígrados
DESCASC
Racha de viento máxima en m/sg (hora)
DESCASC
Velocidad máxima media en intervalos de 10 minutos(hora)
DESCASC
Precipitaciones diarias en mm
DESCASC
Precipitaciones de 00:00 a 06:00 en mm
DESCASC
Precipitaciones de 06:00 a 12:00 en mm
DESCASC
Precipitaciones de 12:00 a 18:00 en mm
DESCASC
Precipitaciones de 18:00 a 24:00 en mm
DESCASC
13-10-2019 18.4 (16:20) 11.5 (05:50) 14.9 11.11 (06:40) 5.56 (06:40) 0 0 0 0 0
12-10-2019 24.7 (16:40) 14.5 (23:59) 19.6 14.44 (19:20) 7.5 (17:00) 0 0 0 0 0
10-10-2019 24.7 (17:30) 2.2 (00:00) 13.5 5 (14:10) 2.5 (14:20) 0 0 0 0 0
09-10-2019 22 (16:50) 6.3 (00:00) 14.2 6.11 (09:20) 3.06 (18:40) 0 0 0 0 0
08-10-2019 29.1 (16:50) 6.7 (00:00) 17.9 5.83 (19:10) 2.5 (19:10) 0 0 0 0 0
07-10-2019 27.2 (16:50) 6.5 (00:00) 16.9 4.44 (16:50) 2.22 (17:10) 0 0 0 0 0
06-10-2019 24.4 (17:30) 3.5 (00:00) 13.9 4.72 (18:10) 2.22 (18:30) 0 0 0 0 0
05-10-2019 24 (17:30) 5.4 (05:30) 14.7 4.17 (15:10) 1.67 (16:50) 0.2 0 0.2 0 0
04-10-2019 24.6 (17:00) 5.9 (00:00) 15.3 3.89 (17:40) 1.67 (15:10) 0 0 0 0 0
03-10-2019 24.6 (17:10) 3 (00:00) 13.8 6.39 (15:00) 3.33 (15:20) 0 0 0 0 0
02-10-2019 20.9 (16:50) 4.9 (00:00) 12.9 7.78 (17:00) 3.33 (00:20) 0 0 0 0 0
01-10-2019 21.3 (17:00) 8.9 (00:00) 15.1 8.89 (15:00) 4.17 (14:40) 0 0 0 0 0
30-09-2019 26.9 (17:00) 6.7 (00:00) 16.8 5.28 (14:50) 2.22 (17:00) 0 0 0 0 0
29-09-2019 26.9 (17:20) 4.9 (00:00) 15.9 3.06 (15:00) 1.39 (14:10) 0 0 0 0 0
28-09-2019 25.9 (17:20) 4.3 (00:00) 15.1 3.89 (14:30) 1.67 (18:00) 0 0 0 0 0
27-09-2019 23.7 (16:50) 4.4 (00:00) 14.1 5.28 (17:00) 2.5 (17:00) 0 0 0 0 0
26-09-2019 25.7 (16:30) 5.4 (00:00) 15.6 4.17 (17:10) 1.67 (15:30) 0 0 0 0 0
25-09-2019 20.5 (17:10) 5.6 (00:00) 13 8.06 (11:50) 3.89 (11:10) 0 0 0 0 0
24-09-2019 21.7 (14:40) 6.9 (00:00) 14.3 6.39 (12:10) 3.06 (14:40) 0 0 0 0 0
23-09-2019 22 (17:00) 4.2 (00:00) 13.1 5 (16:00) 2.22 (16:10) 0 0 0 0 0
22-09-2019 18.5 (17:10) 5.6 (00:00) 12 6.67 (00:30) 3.06 (00:10) 2.8 2.8 0 0 0
21-09-2019 16.3 (16:30) 13.6 (00:00) 14.9 13.89 (19:20) 6.39 (19:30) 34.8 0 10.2 6.8 17.8
20-09-2019 22.9 (15:50) 10.4 (00:00) 16.6 8.89 (15:00) 4.44 (14:20) 0 0 0 0 0
19-09-2019 25.8 (17:00) 10 (00:00) 17.9 6.39 (14:00) 2.78 (12:20) 0 0 0 0 0
18-09-2019 24.9 (14:50) 7.3 (00:00) 16.1 4.72 (12:40) 2.5 (13:10) 0 0 0 0 0
17-09-2019 25.7 (14:20) 10.8 (00:00) 18.3 8.33 (13:00) 4.72 (14:50) 7.4 0 0 7.2 0.2
16-09-2019 24.2 (14:50) 11.5 (00:00) 17.9 5 (15:20) 2.5 (11:20) 0 0 0 0 0

Gráficas

Temp. máximas Temp. mínimas Temp. medias Precipitaciones Rachas de viento máximas Velocidades máximas media en intervalos de 10 minutos

Datos horarios

Fecha y hora oficial Temperatura (ºC) Velocidad del viento (km/h) Dirección del viento Racha (km/h) Dirección de racha Precipitación (mm) Presión (hPa) Tendencia (hPa) Humedad (%)
2019-10-15 23:00:00 6.9 0 Calma 3 Sur 0 -- -- 95
2019-10-15 22:00:00 7.5 2 Sur 3 Sudoeste 0 -- -- 94
2019-10-15 21:00:00 7.6 0 Calma 4 Sur 0 -- -- 92
2019-10-15 20:00:00 9.7 2 Sur 7 Sur 0 -- -- 86
2019-10-15 19:00:00 12 6 Sur 14 Sur 0 -- -- 75
2019-10-15 18:00:00 12.5 6 Sudoeste 20 Sudoeste 0 -- -- 72
2019-10-15 17:00:00 14 9 Sur 20 Sur 0 -- -- 64
2019-10-15 16:00:00 13 6 Sur 21 Sudoeste 0 -- -- 67
2019-10-15 15:00:00 12.7 4 Sudoeste 14 Sudoeste 0 -- -- 67
2019-10-15 14:00:00 13 5 Sur 17 Oeste 0 -- -- 64
2019-10-15 13:00:00 11.6 8 Noroeste 20 Norte 0 -- -- 65
2019-10-15 12:00:00 10.7 6 Noroeste 14 Oeste 0 -- -- 69
2019-10-15 11:00:00 7.1 0 Calma 4 Sudoeste 0 -- -- 100
2019-10-15 10:00:00 1.8 0 Calma 3 Sudoeste 0 -- -- 100
2019-10-15 09:00:00 -0.7 2 Sudoeste 3 Sudoeste 0 -- -- 100
2019-10-15 08:00:00 -0.6 0 Calma 3 Sudoeste 0 -- -- 100
2019-10-15 07:00:00 -0.5 2 Sur 2 Sur 0 -- -- 100
2019-10-15 06:00:00 -0.1 0 Calma 3 Sur 0 -- -- 100
2019-10-15 05:00:00 0.4 0 Calma 4 Sudeste 0 -- -- 99
2019-10-15 04:00:00 0.8 0 Calma 4 Oeste 0 -- -- 99
2019-10-15 03:00:00 1.9 2 Sudeste 4 Sur 0 -- -- 99
2019-10-15 02:00:00 2.4 0 Calma 3 Sudeste 0 -- -- 97
2019-10-15 01:00:00 4.1 0 Calma 9 Oeste 0 -- -- 95
2019-10-15 00:00:00 3.4 0 Calma 6 Noroeste 0 -- -- 96
2019-10-14 23:00:00 5.2 2 Este 9 Noroeste 0 -- -- 90
2019-10-14 22:00:00 5.8 4 Noroeste 11 Oeste 0 -- -- 88
2019-10-14 21:00:00 7.1 3 Noroeste 19 Oeste 0 -- -- 82
2019-10-14 20:00:00 8.2 0 Calma 25 Oeste 0 -- -- 85
2019-10-14 19:00:00 9.5 9 Noroeste 24 Oeste 0 -- -- 83
2019-10-14 18:00:00 10.7 9 Noroeste 27 Oeste 0 -- -- 79
2019-10-14 17:00:00 8.5 4 Sudoeste 39 Oeste 1.6 -- -- 92
2019-10-14 16:00:00 11.7 10 Oeste 22 Oeste 0 -- -- 80
2019-10-14 15:00:00 9.8 4 Oeste 23 Sudoeste 1.4 -- -- 95
2019-10-14 14:00:00 9.5 8 Sudoeste 28 Oeste 5.2 -- -- 94
2019-10-14 13:00:00 10.2 8 Sur 29 Sudoeste 3.6 -- -- 97
2019-10-14 12:00:00 9.8 18 Sur 37 Sur 0.2 -- -- 96
2019-10-14 11:00:00 10.1 12 Sur 24 Sur 0 -- -- 92
2019-10-14 10:00:00 9.6 10 Sudoeste 24 Sur 0 -- -- 94
2019-10-14 09:00:00 9.6 9 Sudoeste 28 Sur 0.2 -- -- 96
2019-10-14 08:00:00 9.8 0 Calma 14 Oeste 1.4 -- -- 96
2019-10-14 07:00:00 10.4 5 Sur 65 Sur 9 -- -- 92
2019-10-14 06:00:00 12.8 16 Sur 34 Sudeste 0 -- -- 93
2019-10-14 05:00:00 12.6 11 Sur 33 Sur 0 -- -- 92
2019-10-14 04:00:00 13.1 12 Sur 27 Sur 0 -- -- 87
2019-10-14 03:00:00 13.2 16 Sur 28 Sur 0 -- -- 84
2019-10-14 02:00:00 13.5 15 Sur 29 Sudoeste 0 -- -- 82
2019-10-14 01:00:00 14.6 15 Sur 39 Sur 0 -- -- 75
2019-10-14 00:00:00 16.5 17 Sur 35 Sur 0 -- -- 67
2019-10-13 23:00:00 16.2 13 Sur 28 Sur 0 -- -- 66
2019-10-13 22:00:00 15.7 11 Sur 22 Sudoeste 0 -- -- 67
2019-10-13 21:00:00 14.4 7 Sur 15 Sur 0 -- -- 74
2019-10-13 20:00:00 15.1 8 Sur 21 Sur 0 -- -- 71
2019-10-13 19:00:00 16.5 12 Sur 32 Sur 0 -- -- 65
2019-10-13 18:00:00 17.2 15 Sur 29 Sur 0 -- -- 63
2019-10-13 17:00:00 17.6 13 Sur 30 Sur 0 -- -- 64
2019-10-13 16:00:00 17 13 Sur 28 Sur 0 -- -- 65
2019-10-13 15:00:00 17.4 15 Sur 33 Sur 0 -- -- 66
2019-10-13 14:00:00 16.8 13 Sur 29 Sur 0 -- -- 74
2019-10-13 13:00:00 14.7 12 Sur 32 Sudoeste 0 -- -- 81
2019-10-13 12:00:00 13.9 10 Sur 26 Sur 0 -- -- 89
2019-10-13 11:00:00 13.3 7 Sudeste 23 Sur 0 -- -- 90
2019-10-13 10:00:00 12.4 5 Sudeste 23 Sudoeste 0 -- -- 95
2019-10-13 09:00:00 11.8 13 Sur 27 Sur 0 -- -- 96
2019-10-13 08:00:00 11.9 9 Sur 29 Sur 0 -- -- 94
2019-10-13 07:00:00 12.2 15 Sur 40 Sudoeste 0 -- -- 89
2019-10-13 06:00:00 11.6 13 Sur 28 Sur 0 -- -- 91
2019-10-13 05:00:00 11.8 14 Sur 34 Sur 0 -- -- 91
2019-10-13 04:00:00 11.9 10 Sur 31 Sur 0 -- -- 90
2019-10-13 03:00:00 13 15 Sur 31 Sur 0 -- -- 87
2019-10-13 02:00:00 13.5 15 Sudoeste 30 Sur 0 -- -- 89
2019-10-13 01:00:00 13.8 14 Sudoeste 28 Sur 0 -- -- 87
2019-10-13 00:00:00 14.5 14 Sur 28 Sudoeste 0 -- -- 85
2019-10-12 23:00:00 16 16 Sur 30 Sudoeste 0 -- -- 83
2019-10-12 22:00:00 17.5 12 Sur 30 Sur 0 -- -- 81
2019-10-12 21:00:00 19.4 16 Sur 37 Sudoeste 0 -- -- 70
2019-10-12 20:00:00 21.5 22 Sur 52 Sudoeste 0 -- -- 46
2019-10-12 19:00:00 22.6 27 Sur 50 Sur 0 -- -- 39
2019-10-12 18:00:00 22.9 18 Sur 48 Sur 0 -- -- 41
2019-10-12 17:00:00 24.5 27 Sur 50 Sudoeste 0 -- -- 38
2019-10-12 16:00:00 24.2 17 Sur 45 Sudoeste 0 -- -- 44
2019-10-12 15:00:00 22.8 15 Sur 37 Sur 0 -- -- 50
2019-10-12 14:00:00 22.2 16 Sur 34 Sur 0 -- -- 54
2019-10-12 13:00:00 20.6 18 Sur 42 Sudeste 0 -- -- 61
2019-10-12 12:00:00 19.2 15 Sur 32 Sudeste 0 -- -- 67
2019-10-12 11:00:00 18.5 13 Sur 28 Sudeste 0 -- -- 67
2019-10-12 10:00:00 17.8 12 Sur 25 Sur 0 -- -- 71
2019-10-12 09:00:00 15.6 8 Sur 19 Sur 0 -- -- 83
2019-10-12 08:00:00 15.3 9 Sur 18 Sudoeste 0 -- -- 83
2019-10-12 07:00:00 15.5 8 Sur 23 Sur 0 -- -- 83
2019-10-12 06:00:00 16.1 10 Sur 19 Sudoeste 0 -- -- 79
2019-10-12 05:00:00 16.6 11 Sur 24 Sur 0 -- -- 76
2019-10-12 04:00:00 16.6 12 Sur 27 Sur 0 -- -- 77
2019-10-12 03:00:00 16.9 17 Sur 30 Sudoeste 0 -- -- 77
2019-10-12 02:00:00 17.5 15 Sur 35 Sur 0 -- -- 69
2019-10-12 01:00:00 18.1 11 Sur 23 Sudoeste 0 -- -- 62
2019-10-12 00:00:00 19 13 Sur 27 Sudoeste 0 -- -- 57
2019-10-11 23:00:00 19.8 11 Sur 23 Sur 0 -- -- 51
2019-10-11 22:00:00 19.6 8 Sur 23 Sudoeste 0 -- -- 51
2019-10-11 21:00:00 20 8 Sur 21 Sur 0 -- -- 50
2019-10-11 20:00:00 20.2 4 Sur 13 Sur 0 -- -- 54
2019-10-11 19:00:00 22 7 Sur 22 Sudeste 0 -- -- 51
2019-10-11 18:00:00 23 10 Sur 22 Sur 0 -- -- 49
2019-10-11 17:00:00 23.7 12 Sur 28 Sudoeste 0 -- -- 46
2019-10-11 16:00:00 23.8 12 Sur 27 Sur 0 -- -- 49
2019-10-11 15:00:00 23.1 10 Sudeste 27 Sudeste 0 -- -- 53
2019-10-11 14:00:00 22.5 9 Sudeste 25 Sudoeste 0 -- -- 53
2019-10-11 13:00:00 22.3 12 Sur 22 Sur 0 -- -- 52
2019-10-11 12:00:00 21.4 10 Sur 22 Sur 0 -- -- 51
2019-10-11 11:00:00 19.5 5 Sudeste 19 Este 0 -- -- 65
2019-10-11 10:00:00 14.3 2 Sudoeste 14 Sudeste 0 -- -- 93
2019-10-11 09:00:00 7.6 0 Calma 5 Sur 0 -- -- 98
2019-10-11 08:00:00 7.3 0 Calma 5 Sudoeste 0 -- -- 98
2019-10-11 07:00:00 6.8 2 Sur 4 Sudoeste 0 -- -- 97
2019-10-11 06:00:00 7 2 Sur 4 Sudoeste 0 -- -- 96
2019-10-11 05:00:00 6.9 2 Sur 4 Sur 0 -- -- 95
2019-10-11 04:00:00 7.1 2 Sur 5 Sur 0 -- -- 92
2019-10-11 03:00:00 7.2 0 Calma 6 Sur 0 -- -- 90
2019-10-11 02:00:00 7.3 2 Sur 4 Sur 0 -- -- 87
2019-10-11 01:00:00 7.4 0 Calma 4 Sur 0 -- -- 86
2019-10-11 00:00:00 7.9 2 Sur 4 Sur 0 -- -- 85
2019-10-10 23:00:00 8.6 2 Sudoeste 4 Sur 0 -- -- 84
2019-10-10 22:00:00 9.6 3 Sur 5 Sur 0 -- -- 80
2019-10-10 21:00:00 12 3 Sur 6 Sur 0 -- -- 73
2019-10-10 20:00:00 17.3 3 Sur 9 Sudeste 0 -- -- 59
2019-10-10 19:00:00 22.6 4 Sudeste 12 Sudeste 0 -- -- 38
2019-10-10 18:00:00 23.8 6 Sudeste 15 Sudeste 0 -- -- 31
2019-10-10 17:00:00 24.6 5 Sudeste 17 Sudeste 0 -- -- 31
2019-10-10 16:00:00 24.1 6 Sudeste 16 Sudeste 0 -- -- 32
2019-10-10 15:00:00 23.3 6 Sudeste 18 Sudeste 0 -- -- 34
2019-10-10 14:00:00 21.2 4 Norte 10 Norte 0 -- -- 48
2019-10-10 13:00:00 18.2 3 Norte 8 Norte 0 -- -- 55
2019-10-10 12:00:00 14.9 3 Sudeste 5 Sudeste 0 -- -- 63
2019-10-10 11:00:00 11.6 3 Sudeste 4 Sudeste 0 -- -- 76
2019-10-10 10:00:00 6.1 0 Calma 2 Sur 0 -- -- 99
2019-10-10 09:00:00 2.2 0 Calma 3 Sur 0 -- -- 97
2019-10-10 08:00:00 2.5 0 Calma 3 Sur 0 -- -- 96
2019-10-10 07:00:00 2.9 0 Calma 4 Sur 0 -- -- 96
2019-10-10 06:00:00 3.4 0 Calma 3 Sur 0 -- -- 95
2019-10-10 05:00:00 3.9 0 Calma 3 Sur 0 -- -- 95
2019-10-10 04:00:00 4.3 0 Calma 4 Sur 0 -- -- 93
2019-10-10 03:00:00 4.5 0 Calma 4 Sur 0 -- -- 90
2019-10-10 02:00:00 4.9 0 Calma 4 Sur 0 -- -- 88
2019-10-10 01:00:00 5.8 0 Calma 6 Sur 0 -- -- 84
2019-10-10 00:00:00 6.3 0 Calma 4 Sur 0 -- -- 81
2019-10-09 23:00:00 7.3 0 Calma 4 Sur 0 -- -- 77
2019-10-09 22:00:00 9.1 0 Calma 4 Sur 0 -- -- 72
2019-10-09 21:00:00 12 0 Calma 5 Sur 0 -- -- 64
2019-10-09 20:00:00 17.5 0 Calma 15 Noroeste 0 -- -- 44
2019-10-09 19:00:00 20 6 Norte 22 Norte 0 -- -- 40
2019-10-09 18:00:00 21.1 8 Norte 20 Noroeste 0 -- -- 36
2019-10-09 17:00:00 22 8 Norte 17 Norte 0 -- -- 30
2019-10-09 16:00:00 21.5 9 Norte 21 Norte 0 -- -- 29
2019-10-09 15:00:00 20.5 6 Norte 18 Norte 0 -- -- 29
2019-10-09 14:00:00 19.2 6 Nordeste 16 Noroeste 0 -- -- 37
2019-10-09 13:00:00 17.7 5 Norte 12 Norte 0 -- -- 46
2019-10-09 12:00:00 15.5 4 Norte 11 Noroeste 0 -- -- 57
2019-10-09 11:00:00 13.4 3 Norte 8 Norte 0 -- -- 62
2019-10-09 10:00:00 11.2 2 Norte 22 Noroeste 0 -- -- 78
2019-10-09 09:00:00 11.9 3 Norte 12 Norte 0 -- -- 94
2019-10-09 08:00:00 13.3 5 Norte 17 Norte 0 -- -- 92
2019-10-09 07:00:00 14.6 4 Norte 16 Norte 0 -- -- 91
2019-10-09 06:00:00 14.5 4 Norte 9 Noroeste 0 -- -- 96
2019-10-09 05:00:00 13.6 0 Calma 4 Norte 0 -- -- 97
2019-10-09 04:00:00 12.3 0 Calma 5 Sur 0 -- -- 98
2019-10-09 03:00:00 10.8 0 Calma 3 Sur 0 -- -- 96
2019-10-09 02:00:00 11.4 0 Calma 4 Sur 0 -- -- 93
2019-10-09 01:00:00 11.3 0 Calma 3 Sur 0 -- -- 93
2019-10-09 00:00:00 12.4 0 Calma 4 Sur 0 -- -- 90
2019-10-08 23:00:00 13.5 0 Calma 4 Sur 0 -- -- 86
2019-10-08 22:00:00 15.3 0 Calma 7 Sur 0 -- -- 79
2019-10-08 21:00:00 18.2 2 Sudoeste 8 Noroeste 0 -- -- 70
2019-10-08 20:00:00 22.6 5 Norte 21 Nordeste 0 -- -- 54
2019-10-08 19:00:00 25.9 5 Noroeste 15 Noroeste 0 -- -- 43
2019-10-08 18:00:00 27.6 5 Sudoeste 12 Sudoeste 0 -- -- 34
2019-10-08 17:00:00 28.5 5 Oeste 15 Sur 0 -- -- 31
2019-10-08 16:00:00 28.7 5 Sur 18 Sur 0 -- -- 32
2019-10-08 15:00:00 27.8 6 Sur 15 Sur 0 -- -- 32
2019-10-08 14:00:00 26.7 3 Sudeste 8 Oeste 0 -- -- 37
2019-10-08 13:00:00 24.6 0 Calma 4 Nordeste 0 -- -- 46
2019-10-08 12:00:00 21.3 0 Calma 4 Norte 0 -- -- 57
2019-10-08 11:00:00 16.8 0 Calma 2 Sudoeste 0 -- -- 78
2019-10-08 10:00:00 10.9 0 Calma 3 Sudoeste 0 -- -- 93
2019-10-08 09:00:00 6.9 0 Calma 3 Sudoeste 0 -- -- 97
2019-10-08 08:00:00 6.7 0 Calma 4 Sur 0 -- -- 95
2019-10-08 07:00:00 6.8 0 Calma 3 Sur 0 -- -- 94
2019-10-08 06:00:00 6.8 0 Calma 4 Sur 0 -- -- 93
2019-10-08 05:00:00 7.3 0 Calma 3 Sur 0 -- -- 93
2019-10-08 04:00:00 7.7 0 Calma 4 Sur 0 -- -- 92
2019-10-08 03:00:00 8 2 Sur 4 Sur 0 -- -- 90
2019-10-08 02:00:00 8.5 0 Calma 4 Sur 0 -- -- 88
2019-10-08 01:00:00 9.2 0 Calma 4 Sur 0 -- -- 86
2019-10-08 00:00:00 9.8 0 Calma 4 Sur 0 -- -- 83
2019-10-07 23:00:00 10.6 0 Calma 5 Sur 0 -- -- 78
2019-10-07 22:00:00 12.1 0 Calma 5 Sur 0 -- -- 74
2019-10-07 21:00:00 14.3 3 Sur 6 Sudoeste 0 -- -- 68
2019-10-07 20:00:00 18.7 0 Calma 5 Sur 0 -- -- 61
2019-10-07 19:00:00 22.5 0 Calma 9 Norte 0 -- -- 49
2019-10-07 18:00:00 26.1 4 Norte 14 Norte 0 -- -- 31
2019-10-07 17:00:00 27.2 6 Norte 16 Noroeste 0 -- -- 25
2019-10-07 16:00:00 26 5 Norte 13 Noroeste 0 -- -- 19
2019-10-07 15:00:00 24.6 6 Norte 13 Noroeste 0 -- -- 24
2019-10-07 14:00:00 23.8 3 Norte 11 Norte 0 -- -- 31
2019-10-07 13:00:00 22.1 2 Este 6 Norte 0 -- -- 43
2019-10-07 12:00:00 19.6 2 Nordeste 7 Este 0 -- -- 59
2019-10-07 11:00:00 15.5 0 Calma 4 Sudeste 0 -- -- 80
2019-10-07 10:00:00 9.8 0 Calma 3 Sur 0 -- -- 100
2019-10-07 09:00:00 6.5 2 Sur 3 Sudoeste 0 -- -- 99
2019-10-07 08:00:00 6.7 0 Calma 2 Sur 0 -- -- 99
2019-10-07 07:00:00 6.5 0 Calma 3 Sur 0 -- -- 98
2019-10-07 06:00:00 6.6 2 Sur 3 Sur 0 -- -- 97
2019-10-07 05:00:00 7.1 0 Calma 4 Sudoeste 0 -- -- 97
2019-10-07 04:00:00 7.3 0 Calma 4 Sur 0 -- -- 96
2019-10-07 03:00:00 8.1 0 Calma 2 Sur 0 -- -- 95
2019-10-07 02:00:00 8.3 2 Sur 3 Sur 0 -- -- 94
2019-10-07 01:00:00 8.4 0 Calma 3 Sur 0 -- -- 92
2019-10-07 00:00:00 8.6 0 Calma 5 Sur 0 -- -- 87
2019-10-06 23:00:00 9.3 0 Calma 4 Sur 0 -- -- 81
2019-10-06 22:00:00 10.4 0 Calma 4 Sur 0 -- -- 74
2019-10-06 21:00:00 12.8 2 Sur 6 Sur 0 -- -- 65
2019-10-06 20:00:00 17.3 4 Sur 14 Norte 0 -- -- 54
2019-10-06 19:00:00 22.4 5 Norte 17 Norte 0 -- -- 33
2019-10-06 18:00:00 23.4 4 Norte 15 Norte 0 -- -- 36
2019-10-06 17:00:00 24.2 4 Noroeste 9 Norte 0 -- -- 32
2019-10-06 16:00:00 23.1 5 Norte 17 Noroeste 0 -- -- 41
2019-10-06 15:00:00 22.1 6 Norte 15 Noroeste 0 -- -- 43
2019-10-06 14:00:00 19.9 5 Norte 13 Noroeste 0 -- -- 52
2019-10-06 13:00:00 18.3 5 Norte 13 Norte 0 -- -- 63
2019-10-06 12:00:00 16.7 5 Norte 13 Norte 0 -- -- 70
2019-10-06 11:00:00 14.1 0 Calma 5 Norte 0 -- -- 87
2019-10-06 10:00:00 7.9 0 Calma 3 Sur 0 -- -- 100
2019-10-06 09:00:00 3.8 0 Calma 3 Sur 0 -- -- 100
2019-10-06 08:00:00 3.5 0 Calma 3 Sur 0 -- -- 99
2019-10-06 07:00:00 3.8 2 Sur 4 Sur 0 -- -- 99
2019-10-06 06:00:00 4.1 0 Calma 3 Sudoeste 0 -- -- 99
2019-10-06 05:00:00 4.3 0 Calma 2 Sur 0 -- -- 97
2019-10-06 04:00:00 4.5 0 Calma 3 Sur 0 -- -- 96
2019-10-06 03:00:00 5.1 0 Calma 4 Sudoeste 0 -- -- 96
2019-10-06 02:00:00 5.4 0 Calma 3 Sur 0 -- -- 94
2019-10-06 01:00:00 6.3 0 Calma 4 Sudeste 0 -- -- 91
2019-10-06 00:00:00 7 0 Calma 3 Sudoeste 0 -- -- 86
2019-10-05 23:00:00 8.4 0 Calma 4 Sur 0 -- -- 82
2019-10-05 22:00:00 9.8 0 Calma 4 Sur 0 -- -- 79
2019-10-05 21:00:00 12.5 0 Calma 5 Sur 0 -- -- 76
2019-10-05 20:00:00 17.4 2 Sur 6 Norte 0 -- -- 62
2019-10-05 19:00:00 21.8 5 Norte 12 Norte 0 -- -- 44
2019-10-05 18:00:00 23.2 4 Norte 10 Noroeste 0 -- -- 44
2019-10-05 17:00:00 23.9 4 Nordeste 13 Oeste 0 -- -- 52
2019-10-05 16:00:00 23.2 3 Nordeste 15 Norte 0 -- -- 57
2019-10-05 15:00:00 21.3 4 Norte 11 Norte 0 -- -- 65
2019-10-05 14:00:00 19.7 5 Norte 12 Norte 0 -- -- 73
2019-10-05 13:00:00 17.4 5 Norte 10 Noroeste 0 -- -- 84
2019-10-05 12:00:00 12.9 4 Norte 8 Norte 0 -- -- 100
2019-10-05 11:00:00 11.3 0 Calma 4 Sudoeste 0 -- -- 100
2019-10-05 10:00:00 10.7 0 Calma 4 Sudoeste 0.2 -- -- 100
2019-10-05 09:00:00 10.4 2 Sur 4 Sur 0 -- -- 100
2019-10-05 08:00:00 9.5 0 Calma 3 Sudoeste 0 -- -- 100
2019-10-05 07:00:00 8.3 0 Calma 2 Sur 0 -- -- 100
2019-10-05 06:00:00 6.1 0 Calma 2 Sur 0 -- -- 100
2019-10-05 05:00:00 5.8 0 Calma 3 Sur 0 -- -- 97
2019-10-05 04:00:00 6.4 0 Calma 2 Sudoeste 0 -- -- 96
2019-10-05 03:00:00 6.9 0 Calma 3 Sur 0 -- -- 95
2019-10-05 02:00:00 7.7 0 Calma 3 Sudoeste 0 -- -- 95
2019-10-05 01:00:00 8.7 0 Calma 3 Sur 0 -- -- 94
2019-10-05 00:00:00 9.7 0 Calma 3 Sur 0 -- -- 91
2019-10-04 23:00:00 11.2 0 Calma 5 Sur 0 -- -- 89
2019-10-04 22:00:00 13.1 0 Calma 4 Sur 0 -- -- 84
2019-10-04 21:00:00 15.5 2 Sur 6 Noroeste 0 -- -- 77
2019-10-04 20:00:00 20.3 0 Calma 12 Sur 0 -- -- 61
2019-10-04 19:00:00 22.8 5 Sur 11 Sudoeste 0 -- -- 51
2019-10-04 18:00:00 23.7 3 Sudoeste 14 Norte 0 -- -- 49
2019-10-04 17:00:00 24.6 2 Norte 11 Sudoeste 0 -- -- 47
2019-10-04 16:00:00 23.3 5 Sudeste 12 Norte 0 -- -- 50
2019-10-04 15:00:00 22.9 4 Norte 11 Norte 0 -- -- 53
2019-10-04 14:00:00 21.5 5 Norte 12 Noroeste 0 -- -- 60
2019-10-04 13:00:00 19.3 4 Nordeste 12 Este 0 -- -- 70
2019-10-04 12:00:00 16.4 0 Calma 8 Norte 0 -- -- 89
2019-10-04 11:00:00 14.4 0 Calma 3 Oeste 0 -- -- 100
2019-10-04 10:00:00 10.3 0 Calma 3 Sudoeste 0 -- -- 100
2019-10-04 09:00:00 7.1 0 Calma 3 Sur 0 -- -- 100
2019-10-04 08:00:00 5.9 0 Calma 3 Sur 0 -- -- 99
2019-10-04 07:00:00 6 0 Calma 3 Sudoeste 0 -- -- 98
2019-10-04 06:00:00 6.3 0 Calma 3 Sur 0 -- -- 98
2019-10-04 05:00:00 6.6 0 Calma 3 Sudoeste 0 -- -- 97
2019-10-04 04:00:00 7 0 Calma 3 Sur 0 -- -- 97
2019-10-04 03:00:00 7.2 0 Calma 3 Sur 0 -- -- 96
2019-10-04 02:00:00 7.6 0 Calma 3 Sur 0 -- -- 94
2019-10-04 01:00:00 8.1 0 Calma 3 Sur 0 -- -- 92
2019-10-04 00:00:00 9.1 0 Calma 3 Sur 0 -- -- 89
2019-10-03 23:00:00 9.8 0 Calma 4 Sur 0 -- -- 83
2019-10-03 22:00:00 11.2 0 Calma 5 Sur 0 -- -- 77
2019-10-03 21:00:00 13.9 0 Calma 5 Sur 0 -- -- 70
2019-10-03 20:00:00 18.6 0 Calma 7 Norte 0 -- -- 57
2019-10-03 19:00:00 22.6 3 Norte 15 Oeste 0 -- -- 40
2019-10-03 18:00:00 23.7 8 Noroeste 15 Oeste 0 -- -- 29
2019-10-03 17:00:00 24.4 4 Noroeste 15 Oeste 0 -- -- 27
2019-10-03 16:00:00 23.2 8 Noroeste 22 Noroeste 0 -- -- 23
2019-10-03 15:00:00 22.6 12 Noroeste 23 Oeste 0 -- -- 30
2019-10-03 14:00:00 21.7 9 Noroeste 18 Noroeste 0 -- -- 37
2019-10-03 13:00:00 20 4 Norte 12 Noroeste 0 -- -- 44
2019-10-03 12:00:00 17.2 0 Calma 7 Este 0 -- -- 65
2019-10-03 11:00:00 13.6 0 Calma 4 Nordeste 0 -- -- 82
2019-10-03 10:00:00 7.5 0 Calma 3 Sur 0 -- -- 100
2019-10-03 09:00:00 3.1 0 Calma 3 Sur 0 -- -- 99
2019-10-03 08:00:00 3.2 0 Calma 4 Sur 0 -- -- 98
2019-10-03 07:00:00 3.6 0 Calma 3 Sur 0 -- -- 97
2019-10-03 06:00:00 4.1 0 Calma 3 Sur 0 -- -- 97
2019-10-03 05:00:00 4.9 0 Calma 3 Sur 0 -- -- 96
2019-10-03 04:00:00 5.4 0 Calma 3 Sur 0 -- -- 96
2019-10-03 03:00:00 5.8 0 Calma 3 Sudoeste 0 -- -- 96
2019-10-03 02:00:00 5.8 0 Calma 3 Sur 0 -- -- 95
2019-10-03 01:00:00 5.7 0 Calma 3 Sur 0 -- -- 90
2019-10-03 00:00:00 6.3 0 Calma 4 Sur 0 -- -- 87
2019-10-02 23:00:00 7.1 0 Calma 4 Sur 0 -- -- 83
2019-10-02 22:00:00 8.9 0 Calma 5 Sudoeste 0 -- -- 77
2019-10-02 21:00:00 11.6 3 Sur 6 Sur 0 -- -- 66
2019-10-02 20:00:00 16.8 3 Norte 17 Noroeste 0 -- -- 49
2019-10-02 19:00:00 19.3 8 Norte 23 Norte 0 -- -- 37
2019-10-02 18:00:00 19.9 12 Norte 24 Norte 0 -- -- 33
2019-10-02 17:00:00 20.6 11 Norte 28 Noroeste 0 -- -- 37
2019-10-02 16:00:00 20.1 8 Noroeste 21 Norte 0 -- -- 42
2019-10-02 15:00:00 18.7 5 Norte 18 Noroeste 0 -- -- 48
2019-10-02 14:00:00 17.3 7 Norte 16 Noroeste 0 -- -- 52
2019-10-02 13:00:00 15.6 7 Norte 21 Norte 0 -- -- 58
2019-10-02 12:00:00 14 7 Norte 22 Norte 0 -- -- 68
2019-10-02 11:00:00 11.8 6 Norte 15 Norte 0 -- -- 85
2019-10-02 10:00:00 8.5 0 Calma 3 Sudeste 0 -- -- 100
2019-10-02 09:00:00 4.9 0 Calma 4 Sur 0 -- -- 97
2019-10-02 08:00:00 6.9 0 Calma 6 Noroeste 0 -- -- 94
2019-10-02 07:00:00 8.9 4 Norte 14 Norte 0 -- -- 98
2019-10-02 06:00:00 8.7 2 Noroeste 12 Noroeste 0 -- -- 99
2019-10-02 05:00:00 6.9 0 Calma 4 Sudeste 0 -- -- 97
2019-10-02 04:00:00 7.8 0 Calma 13 Noroeste 0 -- -- 94
2019-10-02 03:00:00 10.4 3 Norte 22 Noroeste 0 -- -- 93
2019-10-02 02:00:00 10.9 8 Noroeste 17 Norte 0 -- -- 92
2019-10-02 01:00:00 12 3 Nordeste 23 Noroeste 0 -- -- 88
2019-10-02 00:00:00 12.8 7 Norte 16 Norte 0 -- -- 86
2019-10-01 23:00:00 13.2 4 Norte 18 Norte 0 -- -- 82
2019-10-01 22:00:00 12.9 2 Norte 13 Norte 0 -- -- 76
2019-10-01 21:00:00 12.6 0 Calma 6 Noroeste 0 -- -- 76
2019-10-01 20:00:00 17.3 3 Noroeste 17 Noroeste 0 -- -- 61
2019-10-01 19:00:00 19.8 8 Noroeste 24 Oeste 0 -- -- 47
2019-10-01 18:00:00 20.7 11 Noroeste 25 Noroeste 0 -- -- 50
2019-10-01 17:00:00 21.3 10 Noroeste 26 Oeste 0 -- -- 47
2019-10-01 16:00:00 20.4 13 Noroeste 30 Noroeste 0 -- -- 51
2019-10-01 15:00:00 19.5 15 Noroeste 32 Oeste 0 -- -- 59
2019-10-01 14:00:00 17.9 9 Norte 25 Noroeste 0 -- -- 70
2019-10-01 13:00:00 17 13 Noroeste 29 Norte 0 -- -- 75
2019-10-01 12:00:00 17.3 6 Norte 20 Oeste 0 -- -- 73
2019-10-01 11:00:00 14.9 0 Calma 10 Noroeste 0 -- -- 82
2019-10-01 10:00:00 13.3 5 Norte 13 Norte 0 -- -- 88
2019-10-01 09:00:00 13.2 4 Norte 10 Norte 0 -- -- 90
2019-10-01 08:00:00 13.2 3 Noroeste 13 Norte 0 -- -- 92
2019-10-01 07:00:00 13.4 2 Norte 7 Norte 0 -- -- 94
2019-10-01 06:00:00 13.3 0 Calma 4 Noroeste 0 -- -- 97
2019-10-01 05:00:00 12.1 0 Calma 5 Noroeste 0 -- -- 99
2019-10-01 04:00:00 9.8 0 Calma 5 Noroeste 0 -- -- 95
2019-10-01 03:00:00 9.5 0 Calma 2 Sur 0 -- -- 95
2019-10-01 02:00:00 8.9 0 Calma 2 Sur 0 -- -- 93
2019-10-01 01:00:00 9.4 0 Calma 3 Sudeste 0 -- -- 91
2019-10-01 00:00:00 9.8 0 Calma 3 Sur 0 -- -- 84
2019-09-30 23:00:00 10.9 0 Calma 3 Norte 0 -- -- 80
2019-09-30 22:00:00 12.3 0 Calma 4 Sur 0 -- -- 72
2019-09-30 21:00:00 15 0 Calma 3 Sur 0 -- -- 66
2019-09-30 20:00:00 20.6 0 Calma 11 Sudoeste 0 -- -- 51
2019-09-30 19:00:00 24.5 3 Sudoeste 14 Sur 0 -- -- 35
2019-09-30 18:00:00 25.9 4 Sur 15 Sur 0 -- -- 35
2019-09-30 17:00:00 26.9 8 Sur 16 Sudoeste 0 -- -- 33
2019-09-30 16:00:00 26.8 5 Sudoeste 14 Sur 0 -- -- 32
2019-09-30 15:00:00 25.9 5 Sudoeste 19 Sur 0 -- -- 34
2019-09-30 14:00:00 25.2 6 Sur 16 Sur 0 -- -- 36
2019-09-30 13:00:00 24.3 5 Sur 13 Sudoeste 0 -- -- 40
2019-09-30 12:00:00 22.8 5 Sur 10 Sur 0 -- -- 47
2019-09-30 11:00:00 17.3 0 Calma 2 Sur 0 -- -- 91
2019-09-30 10:00:00 11.5 0 Calma 2 Sudoeste 0 -- -- 100
2019-09-30 09:00:00 7 0 Calma 2 Sudoeste 0 -- -- 100
2019-09-30 08:00:00 6.8 0 Calma 2 Sudoeste 0 -- -- 98
2019-09-30 07:00:00 7.1 0 Calma 2 Sur 0 -- -- 98
2019-09-30 06:00:00 7.3 0 Calma 2 Sudoeste 0 -- -- 98
2019-09-30 05:00:00 7.4 0 Calma 3 Sudoeste 0 -- -- 97
2019-09-30 04:00:00 7.7 0 Calma 3 Sur 0 -- -- 96
2019-09-30 03:00:00 8 0 Calma 2 Sur 0 -- -- 95
2019-09-30 02:00:00 8.4 0 Calma 2 Sur 0 -- -- 93
2019-09-30 01:00:00 8.7 0 Calma 3 Sur 0 -- -- 91
2019-09-30 00:00:00 9.6 0 Calma 2 Sur 0 -- -- 86
2019-09-29 23:00:00 10.8 0 Calma 5 Sur 0 -- -- 82
2019-09-29 22:00:00 12.6 0 Calma 4 Sur 0 -- -- 77
2019-09-29 21:00:00 15 2 Sudoeste 5 Sur 0 -- -- 70
2019-09-29 20:00:00 20.3 2 Sur 5 Sur 0 -- -- 54
2019-09-29 19:00:00 24.1 0 Calma 2 Nordeste 0 -- -- 39
2019-09-29 18:00:00 25.8 0 Calma 10 Oeste 0 -- -- 28
2019-09-29 17:00:00 26.7 4 Noroeste 10 Nordeste 0 -- -- 19
2019-09-29 16:00:00 26.1 2 Norte 11 Noroeste 0 -- -- 25
2019-09-29 15:00:00 25.2 4 Noroeste 11 Noroeste 0 -- -- 28
2019-09-29 14:00:00 24.1 3 Nordeste 10 Noroeste 0 -- -- 36
2019-09-29 13:00:00 22.2 3 Este 9 Norte 0 -- -- 52
2019-09-29 12:00:00 19.7 0 Calma 6 Nordeste 0 -- -- 70
2019-09-29 11:00:00 15.8 0 Calma 2 Norte 0 -- -- 82
2019-09-29 10:00:00 9.3 0 Calma 3 Sur 0 -- -- 100
2019-09-29 09:00:00 4.9 0 Calma 3 Sudoeste 0 -- -- 98
2019-09-29 08:00:00 5.1 0 Calma 4 Sur 0 -- -- 97
2019-09-29 07:00:00 5.4 0 Calma 3 Sur 0 -- -- 98
2019-09-29 06:00:00 5.6 0 Calma 3 Sur 0 -- -- 97
2019-09-29 05:00:00 5.9 0 Calma 3 Sur 0 -- -- 95
2019-09-29 04:00:00 6.2 0 Calma 3 Sur 0 -- -- 94
2019-09-29 03:00:00 6.4 2 Sur 2 Sudoeste 0 -- -- 91
2019-09-29 02:00:00 6.9 0 Calma 3 Sudoeste 0 -- -- 90
2019-09-29 01:00:00 7.7 0 Calma 3 Sudoeste 0 -- -- 88
2019-09-29 00:00:00 8.5 0 Calma 3 Sur 0 -- -- 85
2019-09-28 23:00:00 9.3 0 Calma 3 Sur 0 -- -- 81
2019-09-28 22:00:00 10.8 0 Calma 4 Sudoeste 0 -- -- 77
2019-09-28 21:00:00 14.1 0 Calma 4 Sudoeste 0 -- -- 68
2019-09-28 20:00:00 20.5 0 Calma 4 Sudoeste 0 -- -- 51
2019-09-28 19:00:00 23.7 2 Sudoeste 10 Sudoeste 0 -- -- 35
2019-09-28 18:00:00 25.1 6 Sur 13 Sur 0 -- -- 31
2019-09-28 17:00:00 25.7 5 Oeste 12 Oeste 0 -- -- 32
2019-09-28 16:00:00 25.2 4 Oeste 13 Oeste 0 -- -- 30
2019-09-28 15:00:00 24.9 4 Oeste 14 Sur 0 -- -- 34
2019-09-28 14:00:00 24.1 3 Sudoeste 9 Sur 0 -- -- 31
2019-09-28 13:00:00 22.7 2 Sudoeste 8 Sudoeste 0 -- -- 39
2019-09-28 12:00:00 19.1 2 Norte 4 Norte 0 -- -- 76
2019-09-28 11:00:00 14.6 0 Calma 2 Este 0 -- -- 97
2019-09-28 10:00:00 9.1 0 Calma 2 Sur 0 -- -- 100
2019-09-28 09:00:00 4.5 0 Calma 2 Sudoeste 0 -- -- 100
2019-09-28 08:00:00 4.4 0 Calma 2 Sur 0 -- -- 99
2019-09-28 07:00:00 4.6 0 Calma 2 Sudoeste 0 -- -- 98
2019-09-28 06:00:00 5.2 0 Calma 2 Sudoeste 0 -- -- 98
2019-09-28 05:00:00 5.5 0 Calma 2 Sudoeste 0 -- -- 97
2019-09-28 04:00:00 6.1 0 Calma 2 Sur 0 -- -- 96
2019-09-28 03:00:00 6.9 0 Calma 3 Sudoeste 0 -- -- 96
2019-09-28 02:00:00 7.6 0 Calma 2 Sur 0 -- -- 95
2019-09-28 01:00:00 8.7 0 Calma 2 Sur 0 -- -- 93
2019-09-28 00:00:00 10.2 0 Calma 3 Sur 0 -- -- 92
2019-09-27 23:00:00 11.6 2 Sur 5 Sur 0 -- -- 87
2019-09-27 22:00:00 14.1 3 Sur 5 Norte 0 -- -- 79
2019-09-27 21:00:00 17.8 2 Norte 9 Norte 0 -- -- 69
2019-09-27 20:00:00 21.3 0 Calma 15 Noroeste 0 -- -- 52
2019-09-27 19:00:00 22.8 6 Noroeste 17 Noroeste 0 -- -- 39
2019-09-27 18:00:00 23.2 7 Noroeste 18 Norte 0 -- -- 36
2019-09-27 17:00:00 23.6 9 Noroeste 19 Oeste 0 -- -- 31
2019-09-27 16:00:00 23.5 7 Noroeste 17 Noroeste 0 -- -- 28
2019-09-27 15:00:00 22.6 4 Norte 11 Norte 0 -- -- 36
2019-09-27 14:00:00 21.4 3 Nordeste 13 Norte 0 -- -- 39
2019-09-27 13:00:00 19.9 4 Norte 10 Norte 0 -- -- 36
2019-09-27 12:00:00 17.9 3 Norte 10 Noroeste 0 -- -- 46
2019-09-27 11:00:00 14.9 0 Calma 2 Sur 0 -- -- 87
2019-09-27 10:00:00 8.8 0 Calma 3 Sudoeste 0 -- -- 100
2019-09-27 09:00:00 4.5 0 Calma 3 Sudoeste 0 -- -- 99
2019-09-27 08:00:00 4.4 0 Calma 3 Sur 0 -- -- 98
2019-09-27 07:00:00 5 0 Calma 2 Sur 0 -- -- 98
2019-09-27 06:00:00 5.5 0 Calma 3 Sur 0 -- -- 97
2019-09-27 05:00:00 5.9 0 Calma 2 Sudoeste 0 -- -- 97
2019-09-27 04:00:00 6.3 0 Calma 3 Sur 0 -- -- 96
2019-09-27 03:00:00 6.7 0 Calma 3 Sur 0 -- -- 95
2019-09-27 02:00:00 7.2 0 Calma 3 Sur 0 -- -- 93
2019-09-27 01:00:00 7.9 0 Calma 3 Sur 0 -- -- 91
2019-09-27 00:00:00 8.8 0 Calma 3 Sur 0 -- -- 87
2019-09-26 23:00:00 10.1 0 Calma 3 Sur 0 -- -- 83
2019-09-26 22:00:00 11.9 0 Calma 4 Sur 0 -- -- 78
2019-09-26 21:00:00 14.9 2 Sur 4 Sur 0 -- -- 72
2019-09-26 20:00:00 20.7 2 Sur 5 Norte 0 -- -- 52
2019-09-26 19:00:00 23.4 3 Norte 12 Noroeste 0 -- -- 37
2019-09-26 18:00:00 24.3 2 Nordeste 15 Oeste 0 -- -- 34
2019-09-26 17:00:00 25.4 5 Noroeste 13 Sur 0 -- -- 34
2019-09-26 16:00:00 25.4 5 Sur 14 Sur 0 -- -- 41
2019-09-26 15:00:00 24.5 5 Sur 14 Sur 0 -- -- 43
2019-09-26 14:00:00 23.2 3 Sudeste 11 Sudoeste 0 -- -- 45
2019-09-26 13:00:00 22.2 2 Norte 5 Noroeste 0 -- -- 56
2019-09-26 12:00:00 19.1 2 Norte 4 Este 0 -- -- 67
2019-09-26 11:00:00 15.1 0 Calma 2 Sur 0 -- -- 91
2019-09-26 10:00:00 9.7 0 Calma 2 Sur 0 -- -- 100
2019-09-26 09:00:00 5.7 0 Calma 3 Sur 0 -- -- 100
2019-09-26 08:00:00 5.5 0 Calma 2 Sur 0 -- -- 98
2019-09-26 07:00:00 5.8 0 Calma 2 Sur 0 -- -- 98
2019-09-26 06:00:00 6.1 0 Calma 2 Sur 0 -- -- 98
2019-09-26 05:00:00 6.5 0 Calma 2 Sudoeste 0 -- -- 97
2019-09-26 04:00:00 7 0 Calma 2 Sur 0 -- -- 97
2019-09-26 03:00:00 7.4 0 Calma 3 Sur 0 -- -- 96
2019-09-26 02:00:00 8 0 Calma 3 Sur 0 -- -- 95
2019-09-26 01:00:00 8.7 0 Calma 3 Sur 0 -- -- 93
2019-09-26 00:00:00 9.6 0 Calma 2 Sur 0 -- -- 91
2019-09-25 23:00:00 10.7 0 Calma 4 Sudoeste 0 -- -- 89
2019-09-25 22:00:00 12.3 0 Calma 4 Sur 0 -- -- 84
2019-09-25 21:00:00 14.7 0 Calma 4 Norte 0 -- -- 76
2019-09-25 20:00:00 18.8 3 Norte 13 Norte 0 -- -- 59
2019-09-25 19:00:00 20 6 Norte 19 Norte 0 -- -- 49
2019-09-25 18:00:00 20.2 5 Norte 22 Norte 0 -- -- 50
2019-09-25 17:00:00 20.3 5 Norte 20 Norte 0 -- -- 48
2019-09-25 16:00:00 19.4 10 Norte 23 Norte 0 -- -- 46
2019-09-25 15:00:00 18.6 8 Norte 24 Noroeste 0 -- -- 52
2019-09-25 14:00:00 17.6 6 Norte 24 Norte 0 -- -- 59
2019-09-25 13:00:00 15.6 10 Norte 24 Norte 0 -- -- 70
2019-09-25 12:00:00 13.7 13 Norte 29 Norte 0 -- -- 74
2019-09-25 11:00:00 12.3 8 Norte 18 Norte 0 -- -- 85
2019-09-25 10:00:00 9.2 0 Calma 3 Nordeste 0 -- -- 100
2019-09-25 09:00:00 6 0 Calma 3 Sudeste 0 -- -- 99
2019-09-25 08:00:00 6.2 0 Calma 4 Noroeste 0 -- -- 97
2019-09-25 07:00:00 7.5 0 Calma 9 Noroeste 0 -- -- 98
2019-09-25 06:00:00 8.4 5 Noroeste 8 Norte 0 -- -- 98
2019-09-25 05:00:00 9.8 6 Noroeste 13 Noroeste 0 -- -- 98
2019-09-25 04:00:00 10 3 Norte 9 Norte 0 -- -- 99
2019-09-25 03:00:00 8.3 0 Calma 2 Sur 0 -- -- 98
2019-09-25 02:00:00 8.7 0 Calma 4 Sur 0 -- -- 96
2019-09-25 01:00:00 9.7 0 Calma 8 Noroeste 0 -- -- 93
2019-09-25 00:00:00 11.5 2 Norte 16 Norte 0 -- -- 88
2019-09-24 23:00:00 13.1 6 Norte 15 Oeste 0 -- -- 84
2019-09-24 22:00:00 13.5 0 Calma 7 Nordeste 0 -- -- 84
2019-09-24 21:00:00 15.1 0 Calma 14 Noroeste 0 -- -- 83
2019-09-24 20:00:00 17.6 7 Noroeste 23 Noroeste 0 -- -- 71
2019-09-24 19:00:00 19.3 9 Noroeste 21 Norte 0 -- -- 68
2019-09-24 18:00:00 19.8 9 Oeste 18 Oeste 0 -- -- 75
2019-09-24 17:00:00 20.3 6 Oeste 18 Sudoeste 0 -- -- 74
2019-09-24 16:00:00 20.3 8 Sudoeste 22 Sur 0 -- -- 72
2019-09-24 15:00:00 20.9 8 Sudoeste 21 Oeste 0 -- -- 68
2019-09-24 14:00:00 21.2 8 Sudoeste 23 Sudoeste 0 -- -- 65
2019-09-24 13:00:00 20.9 8 Sudoeste 23 Sur 0 -- -- 66
2019-09-24 12:00:00 19.8 9 Sudoeste 21 Sur 0 -- -- 72
2019-09-24 11:00:00 17.7 6 Sudoeste 18 Sudoeste 0 -- -- 79
2019-09-24 10:00:00 15.4 6 Sur 13 Sudoeste 0 -- -- 72
2019-09-24 09:00:00 8.5 4 Sur 12 Sur 0 -- -- 97
2019-09-24 08:00:00 7 2 Sur 5 Sur 0 -- -- 97
2019-09-24 07:00:00 7.3 3 Sur 7 Sur 0 -- -- 99
2019-09-24 06:00:00 6.9 2 Sudoeste 8 Sudoeste 0 -- -- 98
2019-09-24 05:00:00 7.7 2 Sur 4 Sudoeste 0 -- -- 99
2019-09-24 04:00:00 7.7 0 Calma 6 Sudoeste 0 -- -- 99
2019-09-24 03:00:00 7.8 0 Calma 4 Sudoeste 0 -- -- 98
2019-09-24 02:00:00 8.2 3 Sur 5 Sur 0 -- -- 97
2019-09-24 01:00:00 8.8 0 Calma 3 Sur 0 -- -- 95
2019-09-24 00:00:00 9.8 0 Calma 4 Sudoeste 0 -- -- 93
2019-09-23 23:00:00 10.4 3 Sur 5 Sur 0 -- -- 90
2019-09-23 22:00:00 12.1 0 Calma 4 Sudoeste 0 -- -- 86
2019-09-23 21:00:00 14.8 0 Calma 4 Sur 0 -- -- 79
2019-09-23 20:00:00 18.4 0 Calma 12 Sur 0 -- -- 66
2019-09-23 19:00:00 20.7 7 Sur 15 Sudoeste 0 -- -- 50
2019-09-23 18:00:00 21.2 4 Sudoeste 13 Sur 0 -- -- 48
2019-09-23 17:00:00 22 4 Sudoeste 15 Sudoeste 0 -- -- 43
2019-09-23 16:00:00 21.2 7 Sur 18 Sudoeste 0 -- -- 46
2019-09-23 15:00:00 20.3 4 Sudoeste 13 Oeste 0 -- -- 48
2019-09-23 14:00:00 19.4 6 Sur 15 Sur 0 -- -- 46
2019-09-23 13:00:00 18.1 4 Sudoeste 10 Este 0 -- -- 51
2019-09-23 12:00:00 15.1 0 Calma 6 Norte 0 -- -- 79
2019-09-23 11:00:00 12.6 0 Calma 4 Sur 0 -- -- 94
2019-09-23 10:00:00 8.9 0 Calma 3 Sudeste 0 -- -- 100
2019-09-23 09:00:00 5.9 0 Calma 3 Sudeste 0 -- -- 100
2019-09-23 08:00:00 4.3 0 Calma 2 Sur 0 -- -- 100
2019-09-23 07:00:00 4.2 0 Calma 2 Sudoeste 0 -- -- 100
2019-09-23 06:00:00 4.6 0 Calma 3 Sur 0 -- -- 100
2019-09-23 05:00:00 4.9 0 Calma 2 Sur 0 -- -- 99
2019-09-23 04:00:00 5 0 Calma 4 Sudoeste 0 -- -- 98
2019-09-23 03:00:00 5.4 0 Calma 3 Sudoeste 0 -- -- 97
2019-09-23 02:00:00 6.3 0 Calma 3 Sur 0 -- -- 97
2019-09-23 01:00:00 7 0 Calma 5 Sur 0 -- -- 96
2019-09-23 00:00:00 7.9 0 Calma 3 Sudeste 0 -- -- 96
2019-09-22 23:00:00 8.6 0 Calma 4 Sudoeste 0 -- -- 93
2019-09-22 22:00:00 10 2 Sur 4 Sur 0 -- -- 90
2019-09-22 21:00:00 12.1 0 Calma 4 Sur 0 -- -- 85
2019-09-22 20:00:00 15.7 0 Calma 14 Noroeste 0 -- -- 72
2019-09-22 19:00:00 17.9 4 Noroeste 10 Noroeste 0 -- -- 54
2019-09-22 18:00:00 17.6 6 Sudoeste 15 Noroeste 0 -- -- 56
2019-09-22 17:00:00 18.3 8 Oeste 20 Noroeste 0 -- -- 58
2019-09-22 16:00:00 17.9 7 Sudoeste 17 Oeste 0 -- -- 64
2019-09-22 15:00:00 17.1 5 Noroeste 15 Noroeste 0 -- -- 68
2019-09-22 14:00:00 15.6 4 Noroeste 10 Noroeste 0 -- -- 74
2019-09-22 13:00:00 14.7 3 Noroeste 13 Norte 0 -- -- 78
2019-09-22 12:00:00 13.9 3 Noroeste 12 Oeste 0 -- -- 89
2019-09-22 11:00:00 12.1 0 Calma 5 Norte 0 -- -- 100
2019-09-22 10:00:00 8.7 0 Calma 3 Sudeste 0 -- -- 100
2019-09-22 09:00:00 6 0 Calma 4 Sur 0 -- -- 100
2019-09-22 08:00:00 6 0 Calma 3 Sudeste 0 -- -- 100
2019-09-22 07:00:00 6.9 0 Calma 3 Sur 0 -- -- 98
2019-09-22 06:00:00 8 0 Calma 3 Sur 0 -- -- 98
2019-09-22 05:00:00 9.6 0 Calma 4 Noroeste 0 -- -- 97
2019-09-22 04:00:00 11.3 0 Calma 13 Noroeste 0.2 -- -- 96
2019-09-22 03:00:00 12.8 6 Norte 13 Norte 0 -- -- 97
2019-09-22 02:00:00 14.1 5 Noroeste 15 Sur 0.6 -- -- 97
2019-09-22 01:00:00 14.8 8 Sur 24 Sudoeste 2 -- -- 99
2019-09-22 00:00:00 14.9 12 Sudoeste 34 Sur 4.4 -- -- 98
2019-09-21 23:00:00 15.1 15 Sudoeste 42 Sudoeste 4 -- -- 97
2019-09-21 22:00:00 15.7 20 Sur 41 Sur 1.2 -- -- 95
2019-09-21 21:00:00 15.8 17 Sur 29 Sur 1 -- -- 98
2019-09-21 20:00:00 15.5 15 Sur 50 Sur 4.6 -- -- 96
2019-09-21 19:00:00 15.8 15 Sur 39 Sur 2.6 -- -- 96
2019-09-21 18:00:00 15.7 19 Sur 41 Sur 2.4 -- -- 97
2019-09-21 17:00:00 16.2 14 Sur 32 Sur 0.8 -- -- 96
2019-09-21 16:00:00 15.8 11 Sur 33 Sudeste 1.2 -- -- 97
2019-09-21 15:00:00 15 12 Sur 30 Sudeste 1.4 -- -- 98
2019-09-21 14:00:00 14.3 13 Sur 29 Sur 0.6 -- -- 99
2019-09-21 13:00:00 14.5 12 Sur 33 Sur 0.4 -- -- 98
2019-09-21 12:00:00 14.7 10 Sur 30 Sudoeste 1.4 -- -- 97
2019-09-21 11:00:00 14.3 10 Sur 23 Sur 2 -- -- 97
2019-09-21 10:00:00 14.1 10 Sur 26 Sur 0.8 -- -- 97
2019-09-21 09:00:00 13.7 9 Sur 24 Sudeste 3.2 -- -- 97
2019-09-21 08:00:00 13.9 8 Sur 27 Sur 2.6 -- -- 95
2019-09-21 07:00:00 14.5 8 Sur 19 Sur 0.2 -- -- 94
2019-09-21 06:00:00 14.5 9 Sur 23 Sudeste 0 -- -- 91
2019-09-21 05:00:00 14.2 6 Sur 25 Sur 0 -- -- 92
2019-09-21 04:00:00 14.9 8 Sur 17 Sudoeste 0 -- -- 89
2019-09-21 03:00:00 15 7 Sur 22 Sur 0 -- -- 85
2019-09-21 02:00:00 15.2 10 Sur 27 Sur 0 -- -- 83
2019-09-21 01:00:00 15.5 6 Sur 22 Sur 0 -- -- 80
2019-09-21 00:00:00 14.2 4 Sur 12 Sudoeste 0 -- -- 80
2019-09-20 23:00:00 15.1 7 Sur 17 Sur 0 -- -- 72
2019-09-20 22:00:00 16.3 9 Sur 19 Sudoeste 0 -- -- 70
2019-09-20 21:00:00 16.9 10 Sur 19 Sur 0 -- -- 71
2019-09-20 20:00:00 19.1 10 Sur 21 Sudoeste 0 -- -- 64
2019-09-20 19:00:00 20.2 7 Sur 27 Sur 0 -- -- 63
2019-09-20 18:00:00 20.6 11 Sudoeste 28 Sudoeste 0 -- -- 61
2019-09-20 17:00:00 22.2 10 Sur 28 Sur 0 -- -- 50
2019-09-20 16:00:00 22.4 13 Sur 28 Sur 0 -- -- 49
2019-09-20 15:00:00 21.7 14 Sur 32 Sur 0 -- -- 51
2019-09-20 14:00:00 22.1 14 Sur 28 Sudeste 0 -- -- 54
2019-09-20 13:00:00 21 12 Sur 29 Sur 0 -- -- 57
2019-09-20 12:00:00 18.8 11 Sur 20 Sur 0 -- -- 66
2019-09-20 11:00:00 16.9 5 Sur 22 Sudoeste 0 -- -- 74
2019-09-20 10:00:00 13 3 Sur 8 Sur 0 -- -- 96
2019-09-20 09:00:00 10.8 2 Sur 3 Sur 0 -- -- 97
2019-09-20 08:00:00 10.4 0 Calma 4 Sur 0 -- -- 95
2019-09-20 07:00:00 10.9 0 Calma 5 Sudoeste 0 -- -- 93
2019-09-20 06:00:00 11.4 2 Sur 4 Sur 0 -- -- 92
2019-09-20 05:00:00 12.8 0 Calma 2 Sur 0 -- -- 90
2019-09-20 04:00:00 13.3 0 Calma 3 Sur 0 -- -- 91
2019-09-20 03:00:00 13 0 Calma 4 Sudoeste 0 -- -- 90
2019-09-20 02:00:00 12.7 0 Calma 4 Sur 0 -- -- 88
2019-09-20 01:00:00 12.9 0 Calma 4 Sur 0 -- -- 86
2019-09-20 00:00:00 14 2 Sur 6 Noroeste 0 -- -- 83
2019-09-19 23:00:00 15.3 0 Calma 4 Sur 0 -- -- 78
2019-09-19 22:00:00 16.8 0 Calma 3 Sur 0 -- -- 73
2019-09-19 21:00:00 19.3 0 Calma 2 Sur 0 -- -- 64
2019-09-19 20:00:00 23.8 0 Calma 14 Sur 0 -- -- 48
2019-09-19 19:00:00 25.3 8 Sur 19 Sudeste 0 -- -- 38
2019-09-19 18:00:00 25.4 8 Sudeste 17 Sudeste 0 -- -- 34
2019-09-19 17:00:00 25.8 8 Sudeste 20 Sur 0 -- -- 37
2019-09-19 16:00:00 24.9 5 Este 23 Sudeste 0 -- -- 40
2019-09-19 15:00:00 24.7 6 Sudeste 19 Sudeste 0 -- -- 41
2019-09-19 14:00:00 24.3 9 Sudeste 23 Sudeste 0 -- -- 46
2019-09-19 13:00:00 22.9 8 Sudeste 21 Este 0 -- -- 51
2019-09-19 12:00:00 21.5 3 Sudeste 11 Este 0 -- -- 61
2019-09-19 11:00:00 18.2 0 Calma 2 Sur 0 -- -- 78
2019-09-19 10:00:00 12.8 0 Calma 4 Sur 0 -- -- 100
2019-09-19 09:00:00 10.1 0 Calma 3 Sudoeste 0 -- -- 97
2019-09-19 08:00:00 10.6 0 Calma 2 Sudoeste 0 -- -- 97
2019-09-19 07:00:00 10.5 0 Calma 3 Sur 0 -- -- 98
2019-09-19 06:00:00 10.3 0 Calma 3 Sur 0 -- -- 97
2019-09-19 05:00:00 10.6 0 Calma 3 Sur 0 -- -- 97
2019-09-19 04:00:00 10.1 0 Calma 3 Sudoeste 0 -- -- 96
2019-09-19 03:00:00 10.1 0 Calma 4 Sur 0 -- -- 94
2019-09-19 02:00:00 10.7 0 Calma 4 Sur 0 -- -- 93
2019-09-19 01:00:00 11.2 2 Sudoeste 4 Sudoeste 0 -- -- 92
2019-09-19 00:00:00 12.1 0 Calma 4 Sur 0 -- -- 90
2019-09-18 23:00:00 13.2 2 Sur 6 Sur 0 -- -- 88
2019-09-18 22:00:00 15 0 Calma 5 Sur 0 -- -- 83
2019-09-18 21:00:00 18.2 0 Calma 4 Sur 0 -- -- 75
2019-09-18 20:00:00 22.6 2 Norte 7 Norte 0 -- -- 61
2019-09-18 19:00:00 24.1 0 Calma 10 Sudeste 0 -- -- 51
2019-09-18 18:00:00 22 0 Calma 4 Este 0 -- -- 69
2019-09-18 17:00:00 21.6 0 Calma 4 Nordeste 0 -- -- 69
2019-09-18 16:00:00 23.5 2 Sudoeste 17 Noroeste 0 -- -- 52
2019-09-18 15:00:00 24.8 3 Nordeste 11 Sudoeste 0 -- -- 45
2019-09-18 14:00:00 23.6 4 Nordeste 16 Sudeste 0 -- -- 48
2019-09-18 13:00:00 22.2 7 Sudeste 17 Sudeste 0 -- -- 49
2019-09-18 12:00:00 20.1 5 Sur 10 Sudeste 0 -- -- 64
2019-09-18 11:00:00 15.2 0 Calma 4 Sur 0 -- -- 88
2019-09-18 10:00:00 10.8 0 Calma 2 Sur 0 -- -- 100
2019-09-18 09:00:00 7.9 2 Sur 4 Sudeste 0 -- -- 100
2019-09-18 08:00:00 7.4 0 Calma 3 Sur 0 -- -- 100
2019-09-18 07:00:00 7.5 0 Calma 4 Sur 0 -- -- 99
2019-09-18 06:00:00 7.9 0 Calma 4 Sur 0 -- -- 98
2019-09-18 05:00:00 8.5 3 Sur 4 Sur 0 -- -- 98
2019-09-18 04:00:00 9.2 3 Sur 5 Sur 0 -- -- 97
2019-09-18 03:00:00 10.4 0 Calma 5 Sur 0 -- -- 98
2019-09-18 02:00:00 11.1 2 Sur 5 Sur 0 -- -- 95
2019-09-18 01:00:00 12.7 0 Calma 5 Sur 0 -- -- 95
2019-09-18 00:00:00 13.9 0 Calma 17 Noroeste 0 -- -- 93
2019-09-17 23:00:00 13.2 0 Calma 6 Sudeste 0 -- -- 96
2019-09-17 22:00:00 13.6 3 Sur 5 Sur 0 -- -- 95
2019-09-17 21:00:00 14.1 2 Sur 8 Sur 0 -- -- 94